Time;durP1;ratioP1;P1;durP2;ratioP2;P2;SDS_P1;SDS_P2;PMS_P1;PMS_P2;Temp;Humidity;BMP_temperature;BMP_pressure;BME280_temperature;BME280_humidity;BME280_pressure;Samples;Min_cycle;Max_cycle;Signal;HPM_P1;HPM_P2
2023/03/17 00:01:04;;;;;;;;;1.67;1.00;;;;;21.20;31.57;99198.59;5018042;28;45406;-68
2023/03/17 00:03:35;;;;;;;;;1.00;1.00;;;;;21.22;31.68;99204.72;5017306;28;45276;-81
2023/03/17 00:06:03;;;;;;;;;1.00;1.00;;;;;21.17;31.49;99204.91;5018408;28;45364;-81
2023/03/17 00:08:32;;;;;;;;;1.00;1.00;;;;;21.14;31.91;99198.81;5017864;28;45978;-77
2023/03/17 00:10:58;;;;;;;;;1.00;1.00;;;;;21.14;31.51;99212.97;5017827;28;45555;-80
2023/03/17 00:13:25;;;;;;;;;1.00;1.00;;;;;21.11;31.63;99220.16;5017924;28;45299;-79
2023/03/17 00:15:59;;;;;;;;;2.00;1.00;;;;;21.10;31.72;99215.78;5017495;28;45347;-80
2023/03/17 00:18:24;;;;;;;;;1.00;1.00;;;;;20.99;31.94;99214.38;5010474;28;45415;-82
2023/03/17 00:20:51;;;;;;;;;2.00;2.00;;;;;21.00;31.58;99220.53;4997556;28;45479;-80
2023/03/17 00:23:20;;;;;;;;;2.00;1.00;;;;;20.97;31.79;99225.94;4997674;28;45456;-81
2023/03/17 00:25:46;;;;;;;;;2.00;2.00;;;;;20.95;31.80;99222.47;4997886;28;45513;-80
2023/03/17 00:28:18;;;;;;;;;2.00;2.00;;;;;20.80;31.92;99213.25;4997530;28;45351;-81
2023/03/17 00:30:44;;;;;;;;;1.00;1.00;;;;;20.84;32.20;99236.97;4997588;28;45314;-81
2023/03/17 00:33:10;;;;;;;;;1.33;1.00;;;;;20.80;32.41;99240.63;4997786;28;45364;-81
2023/03/17 00:35:37;;;;;;;;;1.67;1.33;;;;;20.78;31.69;99237.16;4998054;28;45305;-69
2023/03/17 00:38:02;;;;;;;;;1.33;1.33;;;;;20.70;31.80;99225.94;4997753;28;45296;-78
2023/03/17 00:40:29;;;;;;;;;2.00;1.00;;;;;20.70;31.81;99239.22;4999375;28;45484;-81
2023/03/17 00:42:57;;;;;;;;;1.00;1.00;;;;;20.60;32.39;99232.47;5002222;28;45360;-82
2023/03/17 00:45:24;;;;;;;;;1.00;1.00;;;;;20.62;32.22;99249.22;4998757;28;45292;-81
2023/03/17 00:47:52;;;;;;;;;2.00;2.00;;;;;20.59;31.97;99247.53;4997249;28;46204;-80
2023/03/17 00:50:24;;;;;;;;;1.00;1.00;;;;;20.52;32.12;99237.13;4997420;28;45465;-76
2023/03/17 00:52:53;;;;;;;;;2.00;2.00;;;;;20.55;31.94;99244.97;4996947;28;45259;-77
2023/03/17 00:55:20;;;;;;;;;2.00;2.00;;;;;20.52;32.26;99250.38;4997664;28;45502;-80
2023/03/17 00:57:47;;;;;;;;;2.00;1.33;;;;;20.50;31.73;99258.38;4996864;28;46131;-81
2023/03/17 01:00:21;;;;;;;;;2.00;2.00;;;;;20.46;31.76;99265.56;4995946;28;45389;-81
2023/03/17 01:02:48;;;;;;;;;1.33;1.33;;;;;20.49;32.17;99266.38;4996908;28;45355;-80
2023/03/17 01:05:15;;;;;;;;;0.00;0.00;;;;;20.42;32.15;99255.97;4997440;28;45442;-81
2023/03/17 01:07:46;;;;;;;;;1.00;1.00;;;;;20.33;31.97;99253.59;4997124;28;46121;-77
2023/03/17 01:10:15;;;;;;;;;2.00;1.00;;;;;20.37;31.85;99268.53;4996992;28;45384;-81
2023/03/17 01:12:41;;;;;;;;;2.00;2.00;;;;;20.34;31.92;99270.38;4997490;28;45228;-77
2023/03/17 01:15:07;;;;;;;;;2.00;2.00;;;;;20.30;32.22;99266.97;4999280;28;45178;-80
2023/03/17 01:17:33;;;;;;;;;1.00;1.00;;;;;20.27;32.22;99265.28;5000811;28;46006;-74
2023/03/17 01:19:58;;;;;;;;;1.33;1.00;;;;;20.26;31.85;99266.19;4999484;28;45426;-79
2023/03/17 01:22:24;;;;;;;;;1.00;1.00;;;;;20.17;32.19;99253.19;5000909;28;45362;-81
2023/03/17 01:24:50;;;;;;;;;1.67;1.00;;;;;20.19;32.07;99258.44;5000589;28;45334;-79
2023/03/17 01:27:17;;;;;;;;;1.00;1.00;;;;;20.19;31.63;99251.38;5000347;28;45490;-81
2023/03/17 01:29:43;;;;;;;;;1.00;1.00;;;;;20.14;31.90;99241.81;5000712;28;45384;-81
2023/03/17 01:32:09;;;;;;;;;1.00;1.00;;;;;20.15;31.87;99251.50;4999871;28;45562;-69
2023/03/17 01:34:35;;;;;;;;;1.00;1.00;;;;;20.13;31.57;99253.31;5001262;28;45446;-80
2023/03/17 01:37:00;;;;;;;;;2.00;1.33;;;;;20.11;31.71;99242.75;5001064;28;46020;-80
2023/03/17 01:39:26;;;;;;;;;1.00;1.00;;;;;20.07;31.75;99254.38;5000255;28;45432;-81
2023/03/17 01:41:55;;;;;;;;;2.33;1.67;;;;;20.10;31.64;99249.00;5000437;28;45254;-80
2023/03/17 01:44:22;;;;;;;;;2.00;1.00;;;;;20.02;31.90;99249.22;5000542;28;45551;-80
2023/03/17 01:46:48;;;;;;;;;3.00;2.00;;;;;20.00;32.00;99256.34;4999941;28;45438;-81
2023/03/17 01:49:20;;;;;;;;;1.33;1.33;;;;;19.97;31.98;99245.81;4999984;28;45499;-81
2023/03/17 01:51:57;;;;;;;;;2.00;1.00;;;;;19.93;32.15;99246.81;5000122;28;46258;-80
2023/03/17 01:54:40;;;;;;;;;1.33;1.00;;;;;19.89;32.40;99242.53;5000300;28;45343;-81
2023/03/17 01:57:15;;;;;;;;;2.00;2.00;;;;;19.84;32.21;99247.97;5000197;28;45569;-81
2023/03/17 01:59:52;;;;;;;;;2.00;2.00;;;;;19.80;32.40;99243.69;5000194;28;45395;-67
2023/03/17 02:02:23;;;;;;;;;1.00;1.00;;;;;19.78;32.35;99242.00;4998768;28;45497;-81
2023/03/17 02:04:51;;;;;;;;;1.67;1.00;;;;;19.70;32.53;99231.56;4999734;28;45428;-79
2023/03/17 02:07:22;;;;;;;;;1.67;1.00;;;;;19.74;32.43;99243.00;4999066;28;45431;-80
2023/03/17 02:09:48;;;;;;;;;3.33;1.67;;;;;19.71;32.52;99243.94;4999712;28;45221;-81
2023/03/17 02:12:14;;;;;;;;;1.00;1.00;;;;;19.67;32.56;99240.44;4998580;28;45203;-73
2023/03/17 02:14:40;;;;;;;;;1.00;1.00;;;;;19.67;32.60;99243.09;5000282;28;45277;-81
2023/03/17 02:17:07;;;;;;;;;1.67;1.33;;;;;19.63;32.53;99233.50;4999696;28;45485;-79
2023/03/17 02:19:33;;;;;;;;;1.67;1.00;;;;;19.60;32.42;99219.50;4999671;28;45488;-81
2023/03/17 02:21:59;;;;;;;;;1.00;1.00;;;;;19.57;32.74;99233.69;4999751;28;45546;-79
2023/03/17 02:24:36;;;;;;;;;1.00;1.00;;;;;19.54;32.62;99228.50;5000049;28;45213;-81
2023/03/17 02:27:11;;;;;;;;;1.33;1.33;;;;;19.52;32.66;99227.66;4998578;28;46048;-76
2023/03/17 02:29:37;;;;;;;;;1.00;1.00;;;;;19.46;32.70;99220.75;5000067;28;45493;-81
2023/03/17 02:32:04;;;;;;;;;1.00;1.00;;;;;19.49;32.46;99227.72;4998967;28;45474;-80
2023/03/17 02:34:31;;;;;;;;;2.33;2.00;;;;;19.42;32.49;99234.13;4999509;28;45260;-81
2023/03/17 02:36:57;;;;;;;;;1.00;1.00;;;;;19.45;32.42;99234.88;4999337;28;45356;-81
2023/03/17 02:39:23;;;;;;;;;3.67;2.00;;;;;19.37;32.62;99228.94;4998196;28;45528;-80
2023/03/17 02:41:49;;;;;;;;;2.00;1.67;;;;;19.39;32.46;99239.50;4999369;28;45320;-78
2023/03/17 02:44:15;;;;;;;;;2.00;2.00;;;;;19.34;32.85;99242.28;4999631;28;45165;-79
2023/03/17 02:46:40;;;;;;;;;2.00;1.00;;;;;19.33;32.68;99223.78;4999477;28;46131;-81
2023/03/17 02:49:07;;;;;;;;;1.00;1.00;;;;;19.29;32.71;99230.91;4999459;28;45458;-76
2023/03/17 02:51:32;;;;;;;;;2.00;2.00;;;;;19.27;32.51;99235.38;4999376;28;45432;-81
2023/03/17 02:53:58;;;;;;;;;2.00;1.00;;;;;19.26;32.70;99228.38;4999340;28;45370;-81
2023/03/17 02:56:24;;;;;;;;;2.00;2.00;;;;;19.25;32.60;99222.19;4997949;28;45340;-81
2023/03/17 02:58:49;;;;;;;;;1.33;1.33;;;;;19.23;32.53;99221.34;4999123;28;45505;-81
2023/03/17 03:01:16;;;;;;;;;1.00;1.00;;;;;19.17;32.51;99207.44;4998910;28;45304;-80
2023/03/17 03:03:41;;;;;;;;;2.67;2.00;;;;;19.22;32.52;99216.13;4999671;28;45326;-81
2023/03/17 03:06:07;;;;;;;;;1.00;1.00;;;;;19.08;32.34;99198.81;4998834;28;46097;-80
2023/03/17 03:08:33;;;;;;;;;2.00;1.00;;;;;19.15;32.45;99210.09;4998892;28;45387;-81
2023/03/17 03:11:01;;;;;;;;;2.00;1.00;;;;;19.11;32.66;99226.97;4998771;28;45513;-81
2023/03/17 03:13:27;;;;;;;;;2.00;1.00;;;;;19.08;32.66;99205.91;4999056;28;45430;-81
2023/03/17 03:15:53;;;;;;;;;2.67;1.00;;;;;19.04;32.34;99204.25;4998680;28;45438;-77
2023/03/17 03:18:18;;;;;;;;;3.00;2.00;;;;;19.08;32.45;99225.28;4998943;28;45233;-80
2023/03/17 03:20:45;;;;;;;;;2.00;1.67;;;;;19.03;32.69;99232.47;4999345;28;45445;-80
2023/03/17 03:23:11;;;;;;;;;2.33;1.00;;;;;18.99;33.15;99224.66;4999541;28;45277;-81
2023/03/17 03:25:37;;;;;;;;;2.00;2.00;;;;;18.93;32.85;99225.69;4998605;28;45455;-81
2023/03/17 03:28:07;;;;;;;;;1.00;1.00;;;;;18.95;32.79;99228.28;4996970;28;45605;-78
2023/03/17 03:30:35;;;;;;;;;2.00;1.00;;;;;18.94;32.70;99223.88;4998144;28;45598;-81
2023/03/17 03:33:00;;;;;;;;;1.00;1.00;;;;;18.86;32.80;99219.69;4998402;28;45326;-80
2023/03/17 03:35:27;;;;;;;;;1.00;1.00;;;;;18.90;32.58;99231.06;4998418;28;46145;-81
2023/03/17 03:37:52;;;;;;;;;2.00;1.67;;;;;18.93;32.53;99241.56;4998360;28;45427;-78
2023/03/17 03:40:18;;;;;;;;;1.00;1.00;;;;;18.88;32.68;99241.69;4998351;28;45336;-80
2023/03/17 03:42:44;;;;;;;;;1.33;1.00;;;;;18.83;32.87;99245.34;4999186;28;45311;-81
2023/03/17 03:45:09;;;;;;;;;1.00;1.00;;;;;18.82;32.88;99249.78;4998377;28;46087;-81
2023/03/17 03:47:35;;;;;;;;;1.00;0.67;;;;;18.82;32.81;99259.47;5003626;28;45305;-82
2023/03/17 03:50:01;;;;;;;;;1.00;0.67;;;;;18.77;33.09;99251.63;5004391;28;45332;-81
2023/03/17 03:52:26;;;;;;;;;2.00;1.67;;;;;18.71;32.88;99264.13;4998583;28;45483;-81
2023/03/17 03:54:52;;;;;;;;;1.67;1.33;;;;;18.70;33.00;99276.47;4998089;28;46028;-81
2023/03/17 03:57:17;;;;;;;;;1.00;1.00;;;;;18.69;32.92;99286.19;4998288;28;45370;-75
2023/03/17 03:59:43;;;;;;;;;2.33;1.67;;;;;18.65;33.14;99276.56;4998755;28;45269;-81
2023/03/17 04:02:08;;;;;;;;;0.67;0.67;;;;;18.65;33.10;99283.66;4998022;28;45275;-81
2023/03/17 04:04:34;;;;;;;;;1.67;1.67;;;;;18.61;33.07;99293.44;4997210;28;45257;-81
2023/03/17 04:07:00;;;;;;;;;2.00;1.33;;;;;18.60;33.17;99299.63;4997832;28;45505;-80
2023/03/17 04:09:26;;;;;;;;;1.67;1.67;;;;;18.54;33.07;99299.75;4997711;28;45496;-81
2023/03/17 04:11:51;;;;;;;;;0.67;0.67;;;;;18.52;33.29;99311.28;4998439;28;45466;-81
2023/03/17 04:14:17;;;;;;;;;2.33;1.67;;;;;18.54;32.94;99320.91;4998209;28;45468;-80
2023/03/17 04:16:43;;;;;;;;;2.33;1.67;;;;;18.52;33.20;99325.34;4998617;28;45462;-81
2023/03/17 04:19:10;;;;;;;;;0.67;0.67;;;;;18.51;33.64;99343.94;4998035;28;45441;-81
2023/03/17 04:21:35;;;;;;;;;1.67;1.33;;;;;18.48;33.43;99347.50;4998215;28;45249;-81
2023/03/17 04:24:04;;;;;;;;;1.67;1.00;;;;;18.45;33.30;99356.38;4997585;28;46195;-80
2023/03/17 04:26:30;;;;;;;;;1.00;0.33;;;;;18.40;33.29;99349.44;4997609;28;45636;-81
2023/03/17 04:28:56;;;;;;;;;1.67;0.67;;;;;18.42;33.22;99361.75;4997549;28;45476;-81
2023/03/17 04:31:22;;;;;;;;;1.67;1.00;;;;;18.37;33.21;99366.25;4997295;28;45277;-81
2023/03/17 04:33:48;;;;;;;;;2.00;1.00;;;;;18.35;33.31;99375.13;4997843;28;45958;-81
2023/03/17 04:36:18;;;;;;;;;2.00;2.00;;;;;18.28;33.54;99363.78;4997555;28;45356;-81
2023/03/17 04:38:44;;;;;;;;;2.00;2.00;;;;;18.32;33.38;99377.81;4998122;28;45489;-81
2023/03/17 04:41:10;;;;;;;;;0.33;0.33;;;;;18.32;33.42;99375.16;4998367;28;45560;-79
2023/03/17 04:43:36;;;;;;;;;1.00;1.00;;;;;18.30;33.61;99385.75;4999487;28;46205;-82
2023/03/17 04:46:01;;;;;;;;;2.67;1.67;;;;;18.31;33.40;99386.66;4997415;28;45435;-81
2023/03/17 04:48:27;;;;;;;;;1.67;1.67;;;;;18.26;33.31;99387.63;4997862;28;45506;-81
2023/03/17 04:50:52;;;;;;;;;1.33;1.33;;;;;18.25;33.30;99387.66;4997255;28;45348;-81
2023/03/17 04:53:18;;;;;;;;;0.67;0.67;;;;;18.27;33.00;99386.69;4997642;28;46122;-81
2023/03/17 04:55:44;;;;;;;;;2.33;0.67;;;;;18.23;32.94;99374.44;4997518;28;45516;-81
2023/03/17 04:58:10;;;;;;;;;0.33;0.33;;;;;18.29;32.81;99394.59;4997382;28;45403;-81
2023/03/17 05:00:37;;;;;;;;;1.00;1.00;;;;;18.28;32.60;99384.91;4996507;28;45570;-81
2023/03/17 05:03:07;;;;;;;;;1.00;1.00;;;;;18.34;32.27;99392.72;4997209;28;45294;-81
2023/03/17 05:05:33;;;;;;;;;1.00;0.67;;;;;18.33;32.65;99401.56;4996174;28;45672;-80
2023/03/17 05:07:58;;;;;;;;;0.67;0.67;;;;;18.30;32.62;99398.97;4997386;28;45460;-81
2023/03/17 05:10:24;;;;;;;;;1.00;1.00;;;;;18.30;32.82;99404.25;4997271;28;45468;-81
2023/03/17 05:12:50;;;;;;;;;1.00;1.00;;;;;18.24;32.92;99407.03;4997385;28;45963;-82
2023/03/17 05:15:16;;;;;;;;;1.33;1.00;;;;;18.29;33.00;99413.13;4997512;28;45158;-77
2023/03/17 05:17:41;;;;;;;;;2.67;1.33;;;;;18.28;32.94;99409.59;4997102;28;45521;-81
2023/03/17 05:20:09;;;;;;;;;1.67;1.67;;;;;18.30;32.83;99414.84;4997447;28;45267;-81
2023/03/17 05:22:35;;;;;;;;;0.00;0.00;;;;;18.23;32.72;99400.88;4997054;28;45973;-81
2023/03/17 05:25:02;;;;;;;;;1.33;1.00;;;;;18.28;33.10;99416.66;4997035;28;45286;-81
2023/03/17 05:27:28;;;;;;;;;1.00;0.67;;;;;18.25;33.08;99419.38;4997249;28;45318;-81
2023/03/17 05:29:53;;;;;;;;;1.67;1.67;;;;;18.23;32.88;99432.59;4997300;28;45368;-80
2023/03/17 05:32:19;;;;;;;;;1.00;1.00;;;;;18.22;32.81;99432.63;4996877;28;46354;-81
2023/03/17 05:34:45;;;;;;;;;0.67;0.67;;;;;18.20;32.96;99435.28;4996931;28;45338;-81
2023/03/17 05:37:11;;;;;;;;;0.00;0.00;;;;;18.17;32.99;99424.78;4996989;28;45316;-81
2023/03/17 05:39:37;;;;;;;;;0.67;0.67;;;;;18.14;31.97;99439.84;4997202;28;45482;-80
2023/03/17 05:42:03;;;;;;;;;0.67;0.67;;;;;18.09;32.47;99434.63;4996759;28;46037;-81
2023/03/17 05:44:29;;;;;;;;;1.33;1.33;;;;;18.12;32.40;99444.28;4996891;28;45499;-81
2023/03/17 05:46:55;;;;;;;;;2.00;2.00;;;;;18.09;32.35;99443.44;4996914;28;45342;-78
2023/03/17 05:49:21;;;;;;;;;1.33;1.33;;;;;18.14;32.29;99455.69;4997142;28;45509;-80
2023/03/17 05:51:46;;;;;;;;;0.67;0.67;;;;;18.13;32.37;99453.97;4996643;28;45304;-81
2023/03/17 05:54:12;;;;;;;;;1.33;0.67;;;;;18.10;32.58;99454.88;4996818;28;45506;-81
2023/03/17 05:56:37;;;;;;;;;1.67;1.67;;;;;18.06;32.61;99456.72;4996853;28;45381;-80
2023/03/17 05:59:03;;;;;;;;;0.67;0.67;;;;;18.06;32.63;99458.47;4997221;28;45384;-81
2023/03/17 06:01:30;;;;;;;;;1.33;0.67;;;;;18.04;32.62;99461.13;4996831;28;45916;-80
2023/03/17 06:03:56;;;;;;;;;1.33;0.67;;;;;18.03;32.38;99458.53;5000159;28;45358;-80
2023/03/17 06:06:23;;;;;;;;;2.67;1.67;;;;;18.00;32.33;99464.72;5000005;28;45467;-80
2023/03/17 06:08:49;;;;;;;;;1.33;0.67;;;;;18.00;32.58;99463.88;5000204;28;45340;-80
2023/03/17 06:11:14;;;;;;;;;1.33;1.00;;;;;17.96;32.59;99470.97;4999652;28;45503;-81
2023/03/17 06:13:40;;;;;;;;;0.00;0.00;;;;;17.96;32.58;99473.59;4999903;28;45464;-81
2023/03/17 06:16:06;;;;;;;;;1.67;1.67;;;;;17.89;32.97;99464.06;5000117;28;45527;-81
2023/03/17 06:18:32;;;;;;;;;2.00;1.00;;;;;17.93;32.59;99467.53;5000068;28;45470;-81
2023/03/17 06:20:57;;;;;;;;;0.67;0.67;;;;;17.85;32.64;99467.66;4999645;28;45624;-80
2023/03/17 06:23:23;;;;;;;;;0.67;0.67;;;;;17.89;32.66;99486.06;5000132;28;45319;-81
2023/03/17 06:25:49;;;;;;;;;2.33;1.00;;;;;17.86;32.91;99478.19;5000080;28;45505;-81
2023/03/17 06:28:15;;;;;;;;;1.00;1.00;;;;;17.79;32.65;99479.16;5004893;28;45218;-81
2023/03/17 06:30:41;;;;;;;;;0.67;0.67;;;;;17.84;32.77;99493.19;5004657;28;45246;-81
2023/03/17 06:33:07;;;;;;;;;1.00;0.33;;;;;17.83;32.96;99494.09;5006178;28;45440;-81
2023/03/17 06:35:33;;;;;;;;;0.00;0.00;;;;;17.76;32.88;99492.41;5005480;28;45289;-81
2023/03/17 06:37:59;;;;;;;;;2.00;2.00;;;;;17.79;33.01;99500.31;5005263;28;45496;-81
2023/03/17 06:40:25;;;;;;;;;4.67;4.33;;;;;17.79;32.77;99508.22;5025035;28;46047;-68
2023/03/17 06:42:51;;;;;;;;;10.00;9.25;;;;;17.74;32.95;99501.25;5024523;28;44765;-68
2023/03/17 06:45:17;;;;;;;;;0.00;0.00;;;;;17.64;32.85;99490.84;5023286;28;44798;-80
2023/03/17 06:47:42;;;;;;;;;1.00;1.00;;;;;17.50;33.11;99469.06;5017759;28;45359;-70
2023/03/17 06:50:10;;;;;;;;;1.00;1.00;;;;;17.66;33.05;99504.88;5019375;28;48157;-80
2023/03/17 06:52:36;;;;;;;;;3.00;1.00;;;;;17.63;33.26;99493.53;4998717;28;45542;-79
2023/03/17 06:55:03;;;;;;;;;1.00;1.00;;;;;17.68;33.46;99502.22;5013573;28;45533;-73
2023/03/17 06:57:28;;;;;;;;;1.00;0.00;;;;;17.68;33.50;99511.00;5007083;28;45228;-73
2023/03/17 06:59:54;;;;;;;;;1.00;1.00;;;;;17.61;33.42;99501.47;4999303;28;46109;-71
2023/03/17 07:02:19;;;;;;;;;0.67;0.67;;;;;17.69;33.37;99517.19;4998899;28;45483;-79
2023/03/17 07:04:45;;;;;;;;;0.00;0.00;;;;;17.69;33.31;99518.06;4998290;28;45723;-80
2023/03/17 07:07:11;;;;;;;;;0.00;0.00;;;;;17.66;33.47;99512.81;4999024;28;45319;-80
2023/03/17 07:09:36;;;;;;;;;1.33;1.33;;;;;17.70;33.56;99501.31;4997652;28;45431;-81
2023/03/17 07:12:03;;;;;;;;;1.00;0.00;;;;;17.70;33.65;99495.16;4998724;28;45501;-80
2023/03/17 07:14:32;;;;;;;;;3.00;3.00;;;;;17.63;33.80;99502.31;5000193;28;45346;-78
2023/03/17 07:16:59;;;;;;;;;3.00;2.00;;;;;17.64;34.01;99514.59;5000066;28;45291;-66
2023/03/17 07:19:26;;;;;;;;;1.00;1.00;;;;;17.65;34.22;99524.28;4999022;28;45662;-81
2023/03/17 07:21:52;;;;;;;;;1.00;1.00;;;;;17.62;34.62;99529.59;4998721;28;45467;-80
2023/03/17 07:24:17;;;;;;;;;1.00;1.00;;;;;17.63;34.58;99534.00;4997509;28;45423;-80
2023/03/17 07:26:43;;;;;;;;;2.00;2.00;;;;;17.62;34.48;99531.38;4998934;28;45534;-77
2023/03/17 07:29:08;;;;;;;;;2.00;2.00;;;;;17.63;34.69;99539.28;4998679;28;45540;-80
2023/03/17 07:31:37;;;;;;;;;1.00;1.00;;;;;17.61;34.47;99527.00;4997924;28;45533;-79
2023/03/17 07:34:03;;;;;;;;;6.50;6.50;;;;;17.57;36.16;99505.03;4998452;28;45533;-77
2023/03/17 07:36:29;;;;;;;;;2.00;2.00;;;;;17.36;35.96;99494.81;4999082;28;45428;-75
2023/03/17 07:38:55;;;;;;;;;2.00;1.00;;;;;17.39;37.17;99526.41;4999762;28;46673;-71
2023/03/17 07:41:21;;;;;;;;;1.00;0.67;;;;;17.38;36.57;99532.59;5005980;28;45504;-79
2023/03/17 07:43:46;;;;;;;;;1.00;1.00;;;;;17.30;35.95;99533.56;5007762;28;45378;-80
2023/03/17 07:46:12;;;;;;;;;1.75;1.75;;;;;17.31;35.90;99539.75;5007267;28;45543;-80
2023/03/17 07:48:41;;;;;;;;;1.00;1.00;;;;;17.33;36.06;99544.97;5006286;28;45546;-80
2023/03/17 07:51:12;;;;;;;;;8.00;7.50;;;;;17.31;36.80;99542.41;5006653;28;45281;-79
2023/03/17 07:53:38;;;;;;;;;2.00;1.00;;;;;17.35;35.89;99546.72;5006650;28;45513;-79
2023/03/17 07:56:04;;;;;;;;;4.00;2.00;;;;;17.40;35.89;99546.66;5006416;28;45488;-79
2023/03/17 07:58:30;;;;;;;;;3.00;2.75;;;;;17.44;35.73;99556.28;5007957;28;45999;-79
2023/03/17 08:00:56;;;;;;;;;2.00;2.00;;;;;17.40;36.69;99552.81;5007696;28;45255;-78
2023/03/17 08:03:22;;;;;;;;;1.00;0.75;;;;;17.39;35.95;99547.53;5005905;28;45482;-80
2023/03/17 08:05:54;;;;;;;;;1.00;1.00;;;;;17.52;36.97;99558.81;5007726;28;45182;-80
2023/03/17 08:08:23;;;;;;;;;1.00;1.00;;;;;17.63;36.64;99570.97;5007472;28;45491;-80
2023/03/17 08:10:49;;;;;;;;;1.00;1.00;;;;;17.72;35.86;99563.81;4997148;28;45431;-79
2023/03/17 08:13:16;;;;;;;;;2.00;1.00;;;;;17.76;34.75;99552.28;4998895;28;45758;-78
2023/03/17 08:15:42;;;;;;;;;1.00;1.00;;;;;17.77;35.18;99552.28;5005533;28;45458;-80
2023/03/17 08:18:08;;;;;;;;;1.75;1.75;;;;;17.82;35.80;99555.72;5022883;28;46339;-77
2023/03/17 08:20:35;;;;;;;;;1.00;1.00;;;;;17.76;35.75;99539.94;5006889;28;45504;-67
2023/03/17 08:23:01;;;;;;;;;2.00;1.00;;;;;17.82;35.58;99539.00;5006003;28;45498;-80
2023/03/17 08:25:27;;;;;;;;;2.33;1.00;;;;;17.81;35.44;99547.84;5006785;28;45403;-71
2023/03/17 08:27:54;;;;;;;;;1.33;1.00;;;;;17.84;34.89;99547.81;5006552;28;45419;-80
2023/03/17 08:30:20;;;;;;;;;1.67;1.00;;;;;17.87;34.80;99555.69;5005218;28;45462;-70
2023/03/17 08:32:46;;;;;;;;;0.00;0.00;;;;;17.89;34.41;99552.13;4999356;28;45442;-80
2023/03/17 08:35:17;;;;;;;;;1.00;1.00;;;;;17.91;33.91;99544.19;5005619;28;45304;-85
2023/03/17 08:37:44;;;;;;;;;1.00;1.00;;;;;17.91;33.89;99546.81;4997300;28;45507;-80
2023/03/17 08:40:18;;;;;;;;;1.00;1.00;;;;;17.92;33.80;99547.69;4996660;28;45380;-81
2023/03/17 08:42:46;;;;;;;;;1.33;1.33;;;;;17.92;34.55;99558.25;4996946;28;45259;-82
2023/03/17 08:45:14;;;;;;;;;1.67;1.67;;;;;17.91;34.18;99564.44;4997012;28;45415;-82
2023/03/17 08:47:39;;;;;;;;;2.25;1.00;;;;;17.89;34.44;99562.69;4996795;28;45497;-77
2023/03/17 08:50:11;;;;;;;;;1.00;1.00;;;;;17.89;34.71;99565.31;4996102;28;45438;-79
2023/03/17 08:52:37;;;;;;;;;1.67;1.00;;;;;17.92;34.36;99567.03;4996877;28;45605;-78
2023/03/17 08:55:03;;;;;;;;;1.00;1.00;;;;;17.94;35.34;99567.03;4995271;28;45628;-70
2023/03/17 08:57:28;;;;;;;;;0.67;0.67;;;;;17.89;35.33;99562.69;4995972;28;45621;-76
2023/03/17 08:59:54;;;;;;;;;1.75;1.75;;;;;18.03;35.25;99572.19;4995737;28;45550;-73
2023/03/17 09:02:20;;;;;;;;;1.67;1.67;;;;;18.13;35.15;99572.91;4995978;28;45600;-76
2023/03/17 09:04:47;;;;;;;;;1.67;1.67;;;;;18.20;35.67;99585.09;4996006;28;45608;-80
2023/03/17 09:07:12;;;;;;;;;3.00;3.00;;;;;18.30;35.75;99581.41;4996071;28;46097;-75
2023/03/17 09:09:38;;;;;;;;;10.75;8.50;;;;;18.40;35.67;99577.72;4995991;28;45993;-70
2023/03/17 09:12:06;;;;;;;;;5.75;3.50;;;;;18.47;35.63;99566.13;4996361;28;45518;-78
2023/03/17 09:14:34;;;;;;;;;1.75;1.50;;;;;18.58;34.46;99562.41;4996349;28;45400;-75
2023/03/17 09:17:00;;;;;;;;;0.50;0.50;;;;;18.70;34.16;99562.16;4995592;28;45506;-70
2023/03/17 09:19:26;;;;;;;;;0.67;0.67;;;;;18.83;33.43;99570.78;4992788;28;45490;-69
2023/03/17 09:21:51;;;;;;;;;0.00;0.00;;;;;18.98;33.32;99577.53;5004326;28;45663;-76
2023/03/17 09:24:18;;;;;;;;;0.67;0.67;;;;;19.26;33.13;99580.53;5006643;28;45548;-77
2023/03/17 09:26:44;;;;;;;;;2.00;1.00;;;;;19.75;32.63;99575.94;5001216;28;45608;-77
2023/03/17 09:29:10;;;;;;;;;1.00;1.00;;;;;20.49;31.64;99576.78;5005030;28;45479;-68
2023/03/17 09:31:36;;;;;;;;;2.00;1.33;;;;;20.93;31.34;99565.00;5005472;28;45578;-77
2023/03/17 09:34:03;;;;;;;;;1.00;1.00;;;;;21.18;32.73;99569.59;5004405;28;45467;-75
2023/03/17 09:36:32;;;;;;;;;2.00;1.00;;;;;21.23;33.81;99573.00;5008610;28;45457;-72
2023/03/17 09:38:59;;;;;;;;;1.00;1.00;;;;;21.28;33.88;99560.44;5010279;28;45233;-77
2023/03/17 09:41:56;;;;;;;;;1.00;1.00;;;;;21.46;33.50;99564.34;5007690;28;45454;-78
2023/03/17 09:44:27;;;;;;;;;1.00;1.00;;;;;21.57;33.76;99572.00;5010018;28;45499;-76
2023/03/17 09:47:12;;;;;;;;;3.00;2.00;;;;;;;;5006964;28;45488;-75
2023/03/17 09:49:48;;;;;;;;;2.00;2.00;;;;;21.97;32.00;99573.41;5008950;28;45216;-79
2023/03/17 09:52:30;;;;;;;;;2.67;2.67;;;;;22.27;32.71;99574.22;5009536;28;45561;-76
2023/03/17 09:54:57;;;;;;;;;2.67;1.67;;;;;22.64;31.23;99544.53;5008922;28;45387;-71
2023/03/17 09:57:32;;;;;;;;;1.00;1.00;;;;;23.60;29.89;99555.19;5008579;28;45501;-71
2023/03/17 10:00:13;;;;;;;;;2.33;1.33;;;;;24.83;28.07;99559.03;5019480;28;45322;-75
2023/03/17 10:02:39;;;;;;;;;1.67;1.33;;;;;25.07;27.17;99541.91;4980309;28;45421;-79
2023/03/17 10:05:11;;;;;;;;;2.00;1.00;;;;;25.34;24.85;99539.78;4979798;28;45550;-73
2023/03/17 10:07:57;;;;;;;;;2.67;1.33;;;;;25.74;25.28;99547.69;4979772;28;46003;-77
2023/03/17 10:10:48;;;;;;;;;1.00;1.00;;;;;26.47;24.44;99555.72;4979555;28;45427;-80
2023/03/17 10:13:32;;;;;;;;;2.00;1.00;;;;;26.83;24.05;99554.75;4977693;28;45594;-78
2023/03/17 10:16:05;;;;;;;;;1.00;1.00;;;;;26.97;24.13;99539.66;4980025;28;45407;-77
2023/03/17 10:18:59;;;;;;;;;3.00;3.00;;;;;27.41;23.76;99543.56;4979697;28;45508;-77
2023/03/17 10:21:30;;;;;;;;;1.00;1.00;;;;;27.72;23.08;99539.19;4979737;28;45437;-78
2023/03/17 10:23:59;;;;;;;;;2.33;1.33;;;;;27.90;23.28;99542.66;5005608;28;45373;-72
2023/03/17 10:26:40;;;;;;;;;1.00;0.00;;;;;27.84;22.59;99549.19;5005360;28;45488;-75
2023/03/17 10:29:16;;;;;;;;;1.00;1.00;;;;;28.16;22.81;99541.13;5005829;28;46284;-75
2023/03/17 10:31:42;;;;;;;;;2.00;1.00;;;;;28.62;23.01;99550.97;5004744;28;45362;-81
2023/03/17 10:34:17;;;;;;;;;2.00;1.33;;;;;28.53;22.47;99557.75;5008804;28;45394;-77
2023/03/17 10:36:47;;;;;;;;;2.00;2.00;;;;;28.49;22.44;99554.38;5012869;28;45592;-76
2023/03/17 10:39:18;;;;;;;;;2.00;2.00;;;;;28.43;21.91;99551.16;5019080;28;45864;-81
2023/03/17 10:41:54;;;;;;;;;1.33;1.33;;;;;28.61;21.98;99538.47;5018779;28;45417;-76
2023/03/17 10:44:28;;;;;;;;;1.00;1.00;;;;;28.30;22.15;99538.47;5018940;28;45455;-77
2023/03/17 10:46:55;;;;;;;;;2.00;2.00;;;;;27.73;23.20;99540.88;5018719;28;45244;-71
2023/03/17 10:49:23;;;;;;;;;2.00;2.00;;;;;27.61;23.31;99549.63;5018565;28;45694;-73
2023/03/17 10:51:54;;;;;;;;;2.67;2.00;;;;;27.39;23.48;99540.09;5018811;28;45490;-76
2023/03/17 10:54:24;;;;;;;;;3.67;3.67;;;;;26.99;23.82;99547.63;5018872;28;45507;-79
2023/03/17 10:56:59;;;;;;;;;3.00;3.00;;;;;26.90;24.30;99540.97;5019192;28;45620;-78
2023/03/17 10:59:30;;;;;;;;;4.00;3.00;;;;;27.01;24.63;99548.41;5018614;28;46060;-80
2023/03/17 11:02:06;;;;;;;;;4.00;1.67;;;;;27.10;24.25;99526.47;5003342;28;45418;-79
2023/03/17 11:04:41;;;;;;;;;2.00;2.00;;;;;27.26;24.22;99545.31;4999436;28;45285;-75
2023/03/17 11:07:25;;;;;;;;;2.00;1.00;;;;;27.18;24.05;99529.59;5008650;28;45360;-69
2023/03/17 11:09:57;;;;;;;;;3.00;3.00;;;;;27.11;24.60;99522.81;5006353;28;45801;-78
2023/03/17 11:12:36;;;;;;;;;2.33;2.33;;;;;27.10;24.44;99509.53;4998942;28;45533;-72
2023/03/17 11:15:13;;;;;;;;;2.00;2.00;;;;;27.33;24.26;99522.53;5013951;28;45502;-78
2023/03/17 11:17:40;;;;;;;;;1.67;1.67;;;;;27.16;23.94;99527.97;5018501;28;45308;-79
2023/03/17 11:20:18;;;;;;;;;1.67;1.67;;;;;27.05;24.40;99523.16;5018682;28;45268;-80
2023/03/17 11:22:57;;;;;;;;;2.00;2.00;;;;;26.89;24.27;99517.78;5018363;28;45543;-78
2023/03/17 11:25:24;;;;;;;;;2.00;2.00;;;;;26.83;24.52;99523.47;5008821;28;45471;-73
2023/03/17 11:28:10;;;;;;;;;2.00;1.50;;;;;26.68;24.48;99519.81;5013716;28;45543;-78
2023/03/17 11:30:42;;;;;;;;;1.00;1.00;;;;;26.33;24.77;99493.00;5018289;28;45410;-78
2023/03/17 11:33:38;;;;;;;;;3.00;3.00;;;;;26.29;25.57;99526.25;4998884;28;45477;-69
2023/03/17 11:36:26;;;;;;;;;2.33;1.67;;;;;26.21;25.58;99517.75;5004429;28;45363;-76
2023/03/17 11:39:00;;;;;;;;;3.00;3.00;;;;;26.25;26.11;99530.03;4977938;28;45353;-78